sensor_id;sensor_type;location;lat;lon;timestamp;pressure;altitude;pressure_sealevel;temperature;humidity
10064;BME280;5071;52.360;13.134;2023-02-11T00:02:18;102492.69;;;1.78;84.38
10064;BME280;5071;52.360;13.134;2023-02-11T00:07:20;102485.50;;;1.74;84.58
10064;BME280;5071;52.360;13.134;2023-02-11T00:12:23;102487.16;;;1.72;84.75
10064;BME280;5071;52.360;13.134;2023-02-11T00:17:27;102472.19;;;1.69;85.08
10064;BME280;5071;52.360;13.134;2023-02-11T00:22:29;102486.09;;;1.68;85.33
10064;BME280;5071;52.360;13.134;2023-02-11T00:27:32;102497.63;;;1.72;85.33
10064;BME280;5071;52.360;13.134;2023-02-11T00:32:35;102492.88;;;1.81;85.13
10064;BME280;5071;52.360;13.134;2023-02-11T00:37:38;102480.63;;;1.98;84.68
10064;BME280;5071;52.360;13.134;2023-02-11T00:42:40;102466.44;;;2.11;83.99
10064;BME280;5071;52.360;13.134;2023-02-11T00:47:43;102466.59;;;2.14;84.24
10064;BME280;5071;52.360;13.134;2023-02-11T00:52:45;102479.31;;;2.24;83.80
10064;BME280;5071;52.360;13.134;2023-02-11T00:57:47;102485.78;;;2.31;83.83
10064;BME280;5071;52.360;13.134;2023-02-11T01:02:51;102479.03;;;2.36;83.65
10064;BME280;5071;52.360;13.134;2023-02-11T01:08:08;102476.19;;;2.49;83.35
10064;BME280;5071;52.360;13.134;2023-02-11T01:13:10;102456.94;;;2.49;83.19
10064;BME280;5071;52.360;13.134;2023-02-11T01:18:14;102456.41;;;2.56;82.92
10064;BME280;5071;52.360;13.134;2023-02-11T01:23:16;102452.38;;;2.63;82.77
10064;BME280;5071;52.360;13.134;2023-02-11T01:28:19;102446.09;;;2.59;83.04
10064;BME280;5071;52.360;13.134;2023-02-11T01:33:23;102428.09;;;2.67;83.22
10064;BME280;5071;52.360;13.134;2023-02-11T01:38:25;102435.44;;;2.74;82.86
10064;BME280;5071;52.360;13.134;2023-02-11T01:43:30;102418.78;;;2.73;83.11
10064;BME280;5071;52.360;13.134;2023-02-11T01:48:37;102421.75;;;2.81;83.00
10064;BME280;5071;52.360;13.134;2023-02-11T01:53:40;102406.09;;;2.83;83.48
10064;BME280;5071;52.360;13.134;2023-02-11T01:58:46;102392.38;;;2.88;83.50
10064;BME280;5071;52.360;13.134;2023-02-11T02:03:51;102391.91;;;2.97;83.03
10064;BME280;5071;52.360;13.134;2023-02-11T02:08:58;102371.72;;;2.96;82.72
10064;BME280;5071;52.360;13.134;2023-02-11T02:14:02;102373.72;;;3.02;83.24
10064;BME280;5071;52.360;13.134;2023-02-11T02:24:53;102342.25;;;3.21;83.25
10064;BME280;5071;52.360;13.134;2023-02-11T02:35:33;102334.72;;;3.29;83.38
10064;BME280;5071;52.360;13.134;2023-02-11T02:40:42;102332.47;;;3.38;83.52
10064;BME280;5071;52.360;13.134;2023-02-11T02:45:45;102331.22;;;3.49;83.00
10064;BME280;5071;52.360;13.134;2023-02-11T02:50:52;102336.00;;;3.60;83.63
10064;BME280;5071;52.360;13.134;2023-02-11T02:56:01;102330.44;;;3.73;83.33
10064;BME280;5071;52.360;13.134;2023-02-11T03:01:18;102337.22;;;3.89;83.10
10064;BME280;5071;52.360;13.134;2023-02-11T03:06:30;102326.81;;;3.92;83.32
10064;BME280;5071;52.360;13.134;2023-02-11T03:12:01;102308.44;;;3.92;83.51
10064;BME280;5071;52.360;13.134;2023-02-11T03:17:04;102305.16;;;3.98;84.00
10064;BME280;5071;52.360;13.134;2023-02-11T03:22:11;102297.16;;;3.95;83.99
10064;BME280;5071;52.360;13.134;2023-02-11T03:27:19;102306.25;;;4.03;84.40
10064;BME280;5071;52.360;13.134;2023-02-11T03:32:25;102305.50;;;4.07;84.31
10064;BME280;5071;52.360;13.134;2023-02-11T03:38:10;102309.28;;;4.14;84.77
10064;BME280;5071;52.360;13.134;2023-02-11T03:43:17;102313.53;;;4.10;85.11
10064;BME280;5071;52.360;13.134;2023-02-11T03:48:23;102307.47;;;4.11;85.19
10064;BME280;5071;52.360;13.134;2023-02-11T03:53:27;102312.56;;;4.08;85.14
10064;BME280;5071;52.360;13.134;2023-02-11T03:58:30;102316.16;;;4.10;85.73
10064;BME280;5071;52.360;13.134;2023-02-11T04:03:32;102316.38;;;4.16;85.54
10064;BME280;5071;52.360;13.134;2023-02-11T04:08:35;102318.19;;;4.17;85.61
10064;BME280;5071;52.360;13.134;2023-02-11T04:13:37;102316.66;;;4.22;85.76
10064;BME280;5071;52.360;13.134;2023-02-11T04:18:39;102306.84;;;4.18;86.13
10064;BME280;5071;52.360;13.134;2023-02-11T04:23:43;102304.34;;;4.21;86.11
10064;BME280;5071;52.360;13.134;2023-02-11T04:28:45;102308.78;;;4.22;86.14
10064;BME280;5071;52.360;13.134;2023-02-11T04:33:47;102307.69;;;4.17;86.14
10064;BME280;5071;52.360;13.134;2023-02-11T04:38:50;102303.53;;;4.24;86.73
10064;BME280;5071;52.360;13.134;2023-02-11T04:43:52;102303.63;;;4.25;86.64
10064;BME280;5071;52.360;13.134;2023-02-11T04:48:55;102300.97;;;4.25;87.03
10064;BME280;5071;52.360;13.134;2023-02-11T04:53:58;102285.16;;;4.24;86.98
10064;BME280;5071;52.360;13.134;2023-02-11T04:59:01;102279.72;;;4.19;87.96
10064;BME280;5071;52.360;13.134;2023-02-11T05:04:03;102287.69;;;4.21;88.08
10064;BME280;5071;52.360;13.134;2023-02-11T05:09:06;102272.13;;;4.27;88.27
10064;BME280;5071;52.360;13.134;2023-02-11T05:14:09;102272.94;;;4.24;88.52
10064;BME280;5071;52.360;13.134;2023-02-11T05:19:11;102253.59;;;4.22;88.77
10064;BME280;5071;52.360;13.134;2023-02-11T05:24:14;102252.78;;;4.25;89.11
10064;BME280;5071;52.360;13.134;2023-02-11T05:29:16;102251.03;;;4.25;90.65
10064;BME280;5071;52.360;13.134;2023-02-11T05:34:19;102254.63;;;4.27;90.58
10064;BME280;5071;52.360;13.134;2023-02-11T05:39:22;102243.94;;;4.23;91.23
10064;BME280;5071;52.360;13.134;2023-02-11T05:44:25;102238.69;;;4.23;91.72
10064;BME280;5071;52.360;13.134;2023-02-11T05:49:27;102229.94;;;4.22;92.94
10064;BME280;5071;52.360;13.134;2023-02-11T05:54:30;102215.88;;;4.22;93.37
10064;BME280;5071;52.360;13.134;2023-02-11T05:59:32;102223.94;;;4.26;93.44
10064;BME280;5071;52.360;13.134;2023-02-11T06:04:34;102217.09;;;4.32;93.49
10064;BME280;5071;52.360;13.134;2023-02-11T06:09:38;102229.28;;;4.29;94.35
10064;BME280;5071;52.360;13.134;2023-02-11T06:14:41;102230.44;;;4.36;94.57
10064;BME280;5071;52.360;13.134;2023-02-11T06:19:43;102240.28;;;4.42;94.98
10064;BME280;5071;52.360;13.134;2023-02-11T06:24:47;102248.22;;;4.43;95.28
10064;BME280;5071;52.360;13.134;2023-02-11T06:30:02;102244.59;;;4.40;95.75
10064;BME280;5071;52.360;13.134;2023-02-11T06:35:17;102230.56;;;4.39;96.79
10064;BME280;5071;52.360;13.134;2023-02-11T06:40:20;102243.84;;;4.44;97.17
10064;BME280;5071;52.360;13.134;2023-02-11T06:45:23;102228.06;;;4.44;98.03
10064;BME280;5071;52.360;13.134;2023-02-11T06:50:25;102241.28;;;4.45;98.40
10064;BME280;5071;52.360;13.134;2023-02-11T06:55:28;102228.19;;;4.47;98.61
10064;BME280;5071;52.360;13.134;2023-02-11T07:00:30;102223.91;;;4.49;98.57
10064;BME280;5071;52.360;13.134;2023-02-11T07:05:49;102232.13;;;4.58;98.09
10064;BME280;5071;52.360;13.134;2023-02-11T07:10:54;102243.06;;;4.71;97.35
10064;BME280;5071;52.360;13.134;2023-02-11T07:15:56;102241.66;;;4.80;96.87
10064;BME280;5071;52.360;13.134;2023-02-11T07:20:58;102226.25;;;4.91;96.03
10064;BME280;5071;52.360;13.134;2023-02-11T07:26:03;102222.03;;;4.96;95.92
10064;BME280;5071;52.360;13.134;2023-02-11T07:31:06;102210.97;;;5.06;95.26
10064;BME280;5071;52.360;13.134;2023-02-11T07:36:09;102212.22;;;5.18;94.62
10064;BME280;5071;52.360;13.134;2023-02-11T07:41:15;102198.38;;;5.23;94.62
10064;BME280;5071;52.360;13.134;2023-02-11T07:46:19;102187.38;;;5.35;94.71
10064;BME280;5071;52.360;13.134;2023-02-11T07:51:23;102190.69;;;5.57;94.13
10064;BME280;5071;52.360;13.134;2023-02-11T07:56:28;102195.25;;;5.62;94.05
10064;BME280;5071;52.360;13.134;2023-02-11T08:01:31;102200.75;;;5.70;93.54
10064;BME280;5071;52.360;13.134;2023-02-11T08:06:34;102211.22;;;5.67;94.00
10064;BME280;5071;52.360;13.134;2023-02-11T08:11:58;102206.13;;;5.73;93.84
10064;BME280;5071;52.360;13.134;2023-02-11T08:23:10;102205.38;;;5.77;93.86
10064;BME280;5071;52.360;13.134;2023-02-11T08:28:14;102229.25;;;5.83;93.70
10064;BME280;5071;52.360;13.134;2023-02-11T08:33:28;102231.00;;;5.83;93.76
10064;BME280;5071;52.360;13.134;2023-02-11T08:38:31;102242.56;;;5.87;94.09
10064;BME280;5071;52.360;13.134;2023-02-11T08:43:35;102256.47;;;5.82;95.34
10064;BME280;5071;52.360;13.134;2023-02-11T08:48:37;102247.72;;;5.83;95.14
10064;BME280;5071;52.360;13.134;2023-02-11T08:53:40;102263.22;;;5.73;96.13
10064;BME280;5071;52.360;13.134;2023-02-11T08:58:43;102251.03;;;5.76;96.50
10064;BME280;5071;52.360;13.134;2023-02-11T09:03:46;102232.47;;;5.73;97.00
10064;BME280;5071;52.360;13.134;2023-02-11T09:08:50;102231.66;;;5.76;97.27
10064;BME280;5071;52.360;13.134;2023-02-11T09:13:54;102213.16;;;5.74;97.84
10064;BME280;5071;52.360;13.134;2023-02-11T09:18:57;102210.50;;;5.73;97.54
10064;BME280;5071;52.360;13.134;2023-02-11T09:23:59;102214.31;;;5.82;97.50
10064;BME280;5071;52.360;13.134;2023-02-11T09:29:03;102235.59;;;5.89;97.39
10064;BME280;5071;52.360;13.134;2023-02-11T09:34:06;102249.19;;;6.01;96.44
10064;BME280;5071;52.360;13.134;2023-02-11T09:39:11;102264.09;;;6.00;96.60
10064;BME280;5071;52.360;13.134;2023-02-11T09:44:19;102262.66;;;6.10;95.96
10064;BME280;5071;52.360;13.134;2023-02-11T09:49:25;102249.53;;;6.13;95.73
10064;BME280;5071;52.360;13.134;2023-02-11T09:54:35;102251.56;;;6.22;95.21
10064;BME280;5071;52.360;13.134;2023-02-11T09:59:40;102255.19;;;6.26;95.46
10064;BME280;5071;52.360;13.134;2023-02-11T10:05:01;102280.03;;;6.34;95.21
10064;BME280;5071;52.360;13.134;2023-02-11T10:10:16;102298.56;;;6.35;95.22
10064;BME280;5071;52.360;13.134;2023-02-11T10:15:33;102281.91;;;6.38;95.37
10064;BME280;5071;52.360;13.134;2023-02-11T10:20:48;102296.25;;;6.46;95.16
10064;BME280;5071;52.360;13.134;2023-02-11T10:25:57;102290.97;;;6.46;95.29
10064;BME280;5071;52.360;13.134;2023-02-11T10:31:02;102287.47;;;6.47;95.68
10064;BME280;5071;52.360;13.134;2023-02-11T10:36:08;102272.22;;;6.37;97.32
10064;BME280;5071;52.360;13.134;2023-02-11T10:41:15;102272.22;;;6.37;97.88
10064;BME280;5071;52.360;13.134;2023-02-11T10:46:21;102285.38;;;6.35;98.91
10064;BME280;5071;52.360;13.134;2023-02-11T10:51:26;102271.19;;;6.32;99.31
10064;BME280;5071;52.360;13.134;2023-02-11T10:56:30;102267.66;;;6.31;99.93
10064;BME280;5071;52.360;13.134;2023-02-11T11:01:44;102280.16;;;6.37;100.00
10064;BME280;5071;52.360;13.134;2023-02-11T11:07:14;102279.97;;;6.31;100.00
10064;BME280;5071;52.360;13.134;2023-02-11T11:12:32;102257.97;;;6.30;100.00
10064;BME280;5071;52.360;13.134;2023-02-11T11:17:37;102257.16;;;6.33;100.00
10064;BME280;5071;52.360;13.134;2023-02-11T11:22:39;102266.72;;;6.29;100.00
10064;BME280;5071;52.360;13.134;2023-02-11T11:27:47;102254.47;;;6.31;100.00
10064;BME280;5071;52.360;13.134;2023-02-11T11:32:52;102260.59;;;6.30;100.00
10064;BME280;5071;52.360;13.134;2023-02-11T11:37:58;102252.88;;;6.36;100.00
10064;BME280;5071;52.360;13.134;2023-02-11T11:43:24;102257.25;;;6.36;100.00
10064;BME280;5071;52.360;13.134;2023-02-11T11:48:31;102255.47;;;6.35;100.00
10064;BME280;5071;52.360;13.134;2023-02-11T11:53:57;102260.69;;;6.33;100.00
10064;BME280;5071;52.360;13.134;2023-02-11T11:59:08;102276.63;;;6.38;100.00
10064;BME280;5071;52.360;13.134;2023-02-11T12:04:34;102250.25;;;6.38;100.00
10064;BME280;5071;52.360;13.134;2023-02-11T12:09:48;102266.03;;;6.35;100.00
10064;BME280;5071;52.360;13.134;2023-02-11T12:15:01;102259.88;;;6.36;100.00
10064;BME280;5071;52.360;13.134;2023-02-11T12:20:42;102255.81;;;6.47;100.00
10064;BME280;5071;52.360;13.134;2023-02-11T12:26:31;102262.84;;;6.47;100.00
10064;BME280;5071;52.360;13.134;2023-02-11T12:31:45;102257.69;;;6.51;100.00
10064;BME280;5071;52.360;13.134;2023-02-11T12:37:03;102254.47;;;6.61;100.00
10064;BME280;5071;52.360;13.134;2023-02-11T12:42:37;102261.44;;;6.59;100.00
10064;BME280;5071;52.360;13.134;2023-02-11T12:47:53;102252.66;;;6.60;100.00
10064;BME280;5071;52.360;13.134;2023-02-11T12:58:37;102246.16;;;6.78;100.00
10064;BME280;5071;52.360;13.134;2023-02-11T13:03:49;102257.75;;;6.85;100.00
10064;BME280;5071;52.360;13.134;2023-02-11T13:09:00;102254.31;;;6.87;100.00
10064;BME280;5071;52.360;13.134;2023-02-11T13:14:08;102251.94;;;6.96;100.00
10064;BME280;5071;52.360;13.134;2023-02-11T13:19:18;102251.97;;;6.99;99.77
10064;BME280;5071;52.360;13.134;2023-02-11T13:24:28;102260.69;;;6.95;99.99
10064;BME280;5071;52.360;13.134;2023-02-11T13:29:48;102274.84;;;6.99;99.88
10064;BME280;5071;52.360;13.134;2023-02-11T13:34:56;102275.78;;;7.01;100.00
10064;BME280;5071;52.360;13.134;2023-02-11T13:40:22;102285.78;;;7.13;99.38
10064;BME280;5071;52.360;13.134;2023-02-11T13:45:42;102269.78;;;7.07;99.64
10064;BME280;5071;52.360;13.134;2023-02-11T13:50:47;102289.81;;;7.00;100.00
10064;BME280;5071;52.360;13.134;2023-02-11T13:56:03;102296.13;;;7.05;100.00
10064;BME280;5071;52.360;13.134;2023-02-11T14:01:06;102296.03;;;7.00;100.00
10064;BME280;5071;52.360;13.134;2023-02-11T14:06:11;102299.75;;;7.09;100.00
10064;BME280;5071;52.360;13.134;2023-02-11T14:11:47;102294.63;;;7.15;99.62
10064;BME280;5071;52.360;13.134;2023-02-11T14:22:24;102303.81;;;7.29;99.37
10064;BME280;5071;52.360;13.134;2023-02-11T14:27:34;102295.25;;;7.38;99.13
10064;BME280;5071;52.360;13.134;2023-02-11T14:32:46;102290.06;;;7.43;98.62
10064;BME280;5071;52.360;13.134;2023-02-11T14:37:55;102313.94;;;7.46;98.52
10064;BME280;5071;52.360;13.134;2023-02-11T14:43:12;102324.75;;;7.55;97.44
10064;BME280;5071;52.360;13.134;2023-02-11T14:48:28;102316.94;;;7.59;97.50
10064;BME280;5071;52.360;13.134;2023-02-11T14:53:32;102318.53;;;7.53;98.08
10064;BME280;5071;52.360;13.134;2023-02-11T14:58:45;102321.97;;;7.50;98.09
10064;BME280;5071;52.360;13.134;2023-02-11T15:03:47;102321.28;;;7.57;97.89
10064;BME280;5071;52.360;13.134;2023-02-11T15:08:52;102316.81;;;7.55;98.26
10064;BME280;5071;52.360;13.134;2023-02-11T15:13:57;102337.06;;;7.54;98.69
10064;BME280;5071;52.360;13.134;2023-02-11T15:19:03;102345.03;;;7.56;98.64
10064;BME280;5071;52.360;13.134;2023-02-11T15:24:21;102359.75;;;7.46;99.27
10064;BME280;5071;52.360;13.134;2023-02-11T15:29:27;102351.88;;;7.48;98.93
10064;BME280;5071;52.360;13.134;2023-02-11T15:34:29;102370.34;;;7.48;99.45
10064;BME280;5071;52.360;13.134;2023-02-11T15:39:33;102364.78;;;7.37;100.00
10064;BME280;5071;52.360;13.134;2023-02-11T15:44:38;102365.75;;;7.40;100.00
10064;BME280;5071;52.360;13.134;2023-02-11T15:49:43;102362.03;;;7.32;100.00
10064;BME280;5071;52.360;13.134;2023-02-11T15:54:55;102367.13;;;7.26;100.00
10064;BME280;5071;52.360;13.134;2023-02-11T16:00:14;102377.63;;;7.23;100.00
10064;BME280;5071;52.360;13.134;2023-02-11T16:05:25;102360.59;;;7.12;100.00
10064;BME280;5071;52.360;13.134;2023-02-11T16:10:29;102367.56;;;7.10;100.00
10064;BME280;5071;52.360;13.134;2023-02-11T16:15:44;102366.63;;;7.08;100.00
10064;BME280;5071;52.360;13.134;2023-02-11T16:20:47;102370.00;;;7.04;100.00
10064;BME280;5071;52.360;13.134;2023-02-11T16:25:56;102389.44;;;7.06;100.00
10064;BME280;5071;52.360;13.134;2023-02-11T16:31:01;102403.50;;;7.05;100.00
10064;BME280;5071;52.360;13.134;2023-02-11T16:36:09;102389.38;;;7.03;100.00
10064;BME280;5071;52.360;13.134;2023-02-11T16:41:12;102378.72;;;6.99;100.00
10064;BME280;5071;52.360;13.134;2023-02-11T16:46:26;102406.19;;;7.06;100.00
10064;BME280;5071;52.360;13.134;2023-02-11T16:51:29;102405.22;;;7.03;100.00
10064;BME280;5071;52.360;13.134;2023-02-11T16:56:31;102405.09;;;6.99;100.00
10064;BME280;5071;52.360;13.134;2023-02-11T17:01:35;102398.94;;;6.99;100.00
10064;BME280;5071;52.360;13.134;2023-02-11T17:06:38;102426.31;;;7.03;100.00
10064;BME280;5071;52.360;13.134;2023-02-11T17:11:41;102437.88;;;7.06;100.00
10064;BME280;5071;52.360;13.134;2023-02-11T17:16:48;102441.19;;;6.99;100.00
10064;BME280;5071;52.360;13.134;2023-02-11T17:21:51;102433.59;;;7.10;100.00
10064;BME280;5071;52.360;13.134;2023-02-11T17:26:53;102463.56;;;7.12;100.00
10064;BME280;5071;52.360;13.134;2023-02-11T17:31:56;102451.47;;;7.20;100.00
10064;BME280;5071;52.360;13.134;2023-02-11T17:36:58;102447.91;;;7.18;100.00
10064;BME280;5071;52.360;13.134;2023-02-11T17:42:01;102461.00;;;7.15;100.00
10064;BME280;5071;52.360;13.134;2023-02-11T17:47:04;102476.84;;;7.15;100.00
10064;BME280;5071;52.360;13.134;2023-02-11T17:52:09;102483.16;;;7.20;100.00
10064;BME280;5071;52.360;13.134;2023-02-11T17:57:11;102492.13;;;7.25;100.00
10064;BME280;5071;52.360;13.134;2023-02-11T18:02:15;102478.69;;;7.17;100.00
10064;BME280;5071;52.360;13.134;2023-02-11T18:07:17;102490.31;;;7.24;100.00
10064;BME280;5071;52.360;13.134;2023-02-11T18:12:18;102493.94;;;7.28;100.00
10064;BME280;5071;52.360;13.134;2023-02-11T18:17:22;102504.28;;;7.20;100.00
10064;BME280;5071;52.360;13.134;2023-02-11T18:22:24;102505.44;;;7.30;100.00
10064;BME280;5071;52.360;13.134;2023-02-11T18:27:32;102517.00;;;7.33;100.00
10064;BME280;5071;52.360;13.134;2023-02-11T18:32:36;102531.31;;;7.40;100.00
10064;BME280;5071;52.360;13.134;2023-02-11T18:37:38;102534.00;;;7.42;100.00
10064;BME280;5071;52.360;13.134;2023-02-11T18:42:40;102537.44;;;7.39;100.00
10064;BME280;5071;52.360;13.134;2023-02-11T18:47:43;102548.19;;;7.45;100.00
10064;BME280;5071;52.360;13.134;2023-02-11T18:52:46;102561.44;;;7.47;100.00
10064;BME280;5071;52.360;13.134;2023-02-11T18:57:48;102578.28;;;7.50;100.00
10064;BME280;5071;52.360;13.134;2023-02-11T19:02:51;102586.25;;;7.52;100.00
10064;BME280;5071;52.360;13.134;2023-02-11T19:07:57;102577.50;;;7.53;100.00
10064;BME280;5071;52.360;13.134;2023-02-11T19:12:59;102599.22;;;7.44;100.00
10064;BME280;5071;52.360;13.134;2023-02-11T19:18:03;102609.94;;;7.49;100.00
10064;BME280;5071;52.360;13.134;2023-02-11T19:23:13;102608.91;;;7.44;100.00
10064;BME280;5071;52.360;13.134;2023-02-11T19:28:15;102623.59;;;7.35;100.00
10064;BME280;5071;52.360;13.134;2023-02-11T19:33:18;102614.09;;;7.40;100.00
10064;BME280;5071;52.360;13.134;2023-02-11T19:38:20;102637.03;;;7.42;100.00
10064;BME280;5071;52.360;13.134;2023-02-11T19:43:22;102636.41;;;7.50;100.00
10064;BME280;5071;52.360;13.134;2023-02-11T19:48:26;102632.81;;;7.48;100.00
10064;BME280;5071;52.360;13.134;2023-02-11T19:53:29;102637.22;;;7.48;100.00
10064;BME280;5071;52.360;13.134;2023-02-11T19:58:30;102629.13;;;7.43;100.00
10064;BME280;5071;52.360;13.134;2023-02-11T20:03:35;102640.50;;;7.40;100.00
10064;BME280;5071;52.360;13.134;2023-02-11T20:08:38;102635.22;;;7.40;100.00
10064;BME280;5071;52.360;13.134;2023-02-11T20:13:40;102644.91;;;7.40;100.00
10064;BME280;5071;52.360;13.134;2023-02-11T20:18:45;102631.34;;;7.29;100.00
10064;BME280;5071;52.360;13.134;2023-02-11T20:23:48;102666.75;;;7.34;100.00
10064;BME280;5071;52.360;13.134;2023-02-11T20:28:51;102669.56;;;7.40;100.00
10064;BME280;5071;52.360;13.134;2023-02-11T20:33:55;102670.03;;;7.27;100.00
10064;BME280;5071;52.360;13.134;2023-02-11T20:38:58;102672.78;;;7.30;100.00
10064;BME280;5071;52.360;13.134;2023-02-11T20:44:03;102674.56;;;7.31;100.00
10064;BME280;5071;52.360;13.134;2023-02-11T20:49:08;102687.47;;;7.22;100.00
10064;BME280;5071;52.360;13.134;2023-02-11T20:54:12;102685.69;;;7.21;100.00
10064;BME280;5071;52.360;13.134;2023-02-11T20:59:14;102686.69;;;7.25;100.00
10064;BME280;5071;52.360;13.134;2023-02-11T21:04:20;102690.22;;;7.25;100.00
10064;BME280;5071;52.360;13.134;2023-02-11T21:09:23;102700.03;;;7.29;100.00
10064;BME280;5071;52.360;13.134;2023-02-11T21:14:27;102706.00;;;7.24;100.00
10064;BME280;5071;52.360;13.134;2023-02-11T21:19:31;102718.97;;;7.16;100.00
10064;BME280;5071;52.360;13.134;2023-02-11T21:24:33;102713.50;;;7.10;100.00
10064;BME280;5071;52.360;13.134;2023-02-11T21:29:35;102720.22;;;7.01;100.00
10064;BME280;5071;52.360;13.134;2023-02-11T21:34:55;102727.53;;;7.09;100.00
10064;BME280;5071;52.360;13.134;2023-02-11T21:39:58;102733.75;;;7.11;100.00
10064;BME280;5071;52.360;13.134;2023-02-11T21:44:59;102755.75;;;7.10;100.00
10064;BME280;5071;52.360;13.134;2023-02-11T21:50:04;102759.53;;;7.18;100.00
10064;BME280;5071;52.360;13.134;2023-02-11T21:55:07;102751.28;;;7.09;100.00
10064;BME280;5071;52.360;13.134;2023-02-11T22:00:10;102756.69;;;7.12;100.00
10064;BME280;5071;52.360;13.134;2023-02-11T22:05:14;102763.47;;;7.05;100.00
10064;BME280;5071;52.360;13.134;2023-02-11T22:10:16;102774.84;;;7.03;100.00
10064;BME280;5071;52.360;13.134;2023-02-11T22:15:18;102783.84;;;7.08;100.00
10064;BME280;5071;52.360;13.134;2023-02-11T22:20:22;102783.91;;;7.11;100.00
10064;BME280;5071;52.360;13.134;2023-02-11T22:25:23;102789.88;;;7.05;100.00
10064;BME280;5071;52.360;13.134;2023-02-11T22:30:26;102804.72;;;7.01;100.00
10064;BME280;5071;52.360;13.134;2023-02-11T22:35:29;102811.59;;;6.96;100.00
10064;BME280;5071;52.360;13.134;2023-02-11T22:40:32;102818.72;;;6.99;100.00
10064;BME280;5071;52.360;13.134;2023-02-11T22:45:33;102820.91;;;6.87;100.00
10064;BME280;5071;52.360;13.134;2023-02-11T22:50:37;102825.56;;;6.94;100.00
10064;BME280;5071;52.360;13.134;2023-02-11T22:55:39;102837.75;;;6.90;100.00
10064;BME280;5071;52.360;13.134;2023-02-11T23:00:41;102851.22;;;6.98;100.00
10064;BME280;5071;52.360;13.134;2023-02-11T23:05:45;102854.47;;;6.89;100.00
10064;BME280;5071;52.360;13.134;2023-02-11T23:10:47;102857.78;;;6.84;100.00
10064;BME280;5071;52.360;13.134;2023-02-11T23:15:50;102850.00;;;6.88;100.00
10064;BME280;5071;52.360;13.134;2023-02-11T23:20:53;102857.09;;;6.89;99.96
10064;BME280;5071;52.360;13.134;2023-02-11T23:25:55;102859.81;;;6.91;99.89
10064;BME280;5071;52.360;13.134;2023-02-11T23:30:57;102872.00;;;6.89;100.00
10064;BME280;5071;52.360;13.134;2023-02-11T23:36:02;102871.03;;;6.85;99.68
10064;BME280;5071;52.360;13.134;2023-02-11T23:41:04;102877.06;;;6.82;99.55
10064;BME280;5071;52.360;13.134;2023-02-11T23:46:08;102872.59;;;6.80;99.43
10064;BME280;5071;52.360;13.134;2023-02-11T23:51:11;102879.66;;;6.81;99.21
10064;BME280;5071;52.360;13.134;2023-02-11T23:56:16;102884.94;;;6.81;99.08
